sensor_id;sensor_type;location;lat;lon;timestamp;pressure;altitude;pressure_sealevel;temperature;humidity
17785;BME280;9016;53.582;10.062;2022-09-20T00:01:16;101695.41;;;12.17;99.29
17785;BME280;9016;53.582;10.062;2022-09-20T00:03:48;101698.25;;;12.14;99.86
17785;BME280;9016;53.582;10.062;2022-09-20T00:06:19;101705.53;;;12.10;99.28
17785;BME280;9016;53.582;10.062;2022-09-20T00:08:48;101701.06;;;12.11;99.46
17785;BME280;9016;53.582;10.062;2022-09-20T00:11:18;101703.81;;;12.09;99.45
17785;BME280;9016;53.582;10.062;2022-09-20T00:13:48;101711.03;;;12.07;99.41
17785;BME280;9016;53.582;10.062;2022-09-20T00:16:20;101706.66;;;12.06;99.46
17785;BME280;9016;53.582;10.062;2022-09-20T00:18:50;101714.69;;;12.06;99.01
17785;BME280;9016;53.582;10.062;2022-09-20T00:21:20;101710.44;;;12.02;99.59
17785;BME280;9016;53.582;10.062;2022-09-20T00:23:50;101714.97;;;12.00;99.62
17785;BME280;9016;53.582;10.062;2022-09-20T00:26:18;101719.38;;;12.01;99.72
17785;BME280;9016;53.582;10.062;2022-09-20T00:28:46;101716.06;;;11.96;99.42
17785;BME280;9016;53.582;10.062;2022-09-20T00:31:14;101713.56;;;11.93;99.40
17785;BME280;9016;53.582;10.062;2022-09-20T00:33:43;101717.88;;;11.95;99.76
17785;BME280;9016;53.582;10.062;2022-09-20T00:36:30;101715.34;;;11.92;99.62
17785;BME280;9016;53.582;10.062;2022-09-20T00:39:00;101717.16;;;11.92;99.31
17785;BME280;9016;53.582;10.062;2022-09-20T00:41:29;101722.75;;;11.87;99.70
17785;BME280;9016;53.582;10.062;2022-09-20T00:43:58;101720.91;;;11.88;100.00
17785;BME280;9016;53.582;10.062;2022-09-20T00:46:32;101722.78;;;11.86;99.98
17785;BME280;9016;53.582;10.062;2022-09-20T00:49:05;101720.13;;;11.86;100.00
17785;BME280;9016;53.582;10.062;2022-09-20T00:51:37;101717.41;;;11.87;100.00
17785;BME280;9016;53.582;10.062;2022-09-20T00:54:09;101725.47;;;11.86;99.84
17785;BME280;9016;53.582;10.062;2022-09-20T00:56:43;101728.13;;;11.86;99.82
17785;BME280;9016;53.582;10.062;2022-09-20T00:59:14;101719.38;;;11.84;100.00
17785;BME280;9016;53.582;10.062;2022-09-20T01:01:45;101720.44;;;11.80;99.97
17785;BME280;9016;53.582;10.062;2022-09-20T01:04:15;101726.97;;;11.74;99.94
17785;BME280;9016;53.582;10.062;2022-09-20T01:06:50;101735.81;;;11.75;100.00
17785;BME280;9016;53.582;10.062;2022-09-20T01:09:20;101735.06;;;11.73;100.00
17785;BME280;9016;53.582;10.062;2022-09-20T01:11:48;101731.50;;;11.72;100.00
17785;BME280;9016;53.582;10.062;2022-09-20T01:14:18;101729.84;;;11.70;100.00
17785;BME280;9016;53.582;10.062;2022-09-20T01:16:48;101733.38;;;11.70;100.00
17785;BME280;9016;53.582;10.062;2022-09-20T01:19:24;101729.72;;;11.73;100.00
17785;BME280;9016;53.582;10.062;2022-09-20T01:21:55;101729.72;;;11.73;100.00
17785;BME280;9016;53.582;10.062;2022-09-20T01:24:26;101735.81;;;11.75;100.00
17785;BME280;9016;53.582;10.062;2022-09-20T01:27:11;101732.38;;;11.73;100.00
17785;BME280;9016;53.582;10.062;2022-09-20T01:30:08;101725.53;;;11.67;100.00
17785;BME280;9016;53.582;10.062;2022-09-20T01:32:45;101727.44;;;11.64;100.00
17785;BME280;9016;53.582;10.062;2022-09-20T01:35:18;101728.59;;;11.58;100.00
17785;BME280;9016;53.582;10.062;2022-09-20T01:38:00;101741.03;;;11.59;100.00
17785;BME280;9016;53.582;10.062;2022-09-20T01:40:37;101736.84;;;11.54;100.00
17785;BME280;9016;53.582;10.062;2022-09-20T01:43:14;101739.50;;;11.54;100.00
17785;BME280;9016;53.582;10.062;2022-09-20T01:45:47;101745.00;;;11.51;100.00
17785;BME280;9016;53.582;10.062;2022-09-20T01:48:24;101738.81;;;11.50;100.00
17785;BME280;9016;53.582;10.062;2022-09-20T01:51:25;101746.88;;;11.49;100.00
17785;BME280;9016;53.582;10.062;2022-09-20T02:00:12;101747.00;;;11.46;100.00
17785;BME280;9016;53.582;10.062;2022-09-20T02:03:12;101746.19;;;11.45;100.00
17785;BME280;9016;53.582;10.062;2022-09-20T02:06:10;101749.84;;;11.43;100.00
17785;BME280;9016;53.582;10.062;2022-09-20T02:09:11;101752.44;;;11.44;100.00
17785;BME280;9016;53.582;10.062;2022-09-20T02:11:58;101756.97;;;11.42;100.00
17785;BME280;9016;53.582;10.062;2022-09-20T02:14:35;101759.66;;;11.42;100.00
17785;BME280;9016;53.582;10.062;2022-09-20T02:17:11;101758.00;;;11.40;100.00
17785;BME280;9016;53.582;10.062;2022-09-20T02:19:53;101763.34;;;11.40;100.00
17785;BME280;9016;53.582;10.062;2022-09-20T02:22:40;101764.19;;;11.40;100.00
17785;BME280;9016;53.582;10.062;2022-09-20T02:25:17;101761.59;;;11.39;100.00
17785;BME280;9016;53.582;10.062;2022-09-20T02:27:56;101764.41;;;11.36;100.00
17785;BME280;9016;53.582;10.062;2022-09-20T02:30:36;101761.03;;;11.32;99.87
17785;BME280;9016;53.582;10.062;2022-09-20T02:33:19;101766.50;;;11.29;100.00
17785;BME280;9016;53.582;10.062;2022-09-20T02:36:03;101768.31;;;11.29;100.00
17785;BME280;9016;53.582;10.062;2022-09-20T02:38:43;101771.91;;;11.28;100.00
17785;BME280;9016;53.582;10.062;2022-09-20T02:41:50;101778.03;;;11.30;100.00
17785;BME280;9016;53.582;10.062;2022-09-20T02:44:28;101776.59;;;11.23;99.46
17785;BME280;9016;53.582;10.062;2022-09-20T02:47:06;101773.41;;;11.15;99.89
17785;BME280;9016;53.582;10.062;2022-09-20T02:49:52;101781.34;;;11.16;100.00
17785;BME280;9016;53.582;10.062;2022-09-20T02:52:30;101778.97;;;11.10;100.00
17785;BME280;9016;53.582;10.062;2022-09-20T02:55:06;101780.97;;;11.05;100.00
17785;BME280;9016;53.582;10.062;2022-09-20T02:57:43;101779.97;;;11.08;100.00
17785;BME280;9016;53.582;10.062;2022-09-20T03:00:18;101781.84;;;11.06;100.00
17785;BME280;9016;53.582;10.062;2022-09-20T03:02:59;101782.91;;;11.02;100.00
17785;BME280;9016;53.582;10.062;2022-09-20T03:05:35;101790.97;;;11.00;100.00
17785;BME280;9016;53.582;10.062;2022-09-20T03:08:27;101794.59;;;10.99;99.61
17785;BME280;9016;53.582;10.062;2022-09-20T03:11:11;101796.38;;;10.98;99.73
17785;BME280;9016;53.582;10.062;2022-09-20T03:13:57;101793.00;;;10.95;99.10
17785;BME280;9016;53.582;10.062;2022-09-20T03:16:33;101801.06;;;10.93;99.23
17785;BME280;9016;53.582;10.062;2022-09-20T03:19:16;101803.84;;;10.90;99.32
17785;BME280;9016;53.582;10.062;2022-09-20T03:21:58;101802.22;;;10.88;99.24
17785;BME280;9016;53.582;10.062;2022-09-20T03:24:40;101807.81;;;10.82;99.57
17785;BME280;9016;53.582;10.062;2022-09-20T03:27:17;101805.41;;;10.76;99.11
17785;BME280;9016;53.582;10.062;2022-09-20T03:29:57;101813.31;;;10.77;100.00
17785;BME280;9016;53.582;10.062;2022-09-20T03:32:44;101814.34;;;10.75;100.00
17785;BME280;9016;53.582;10.062;2022-09-20T03:35:38;101811.47;;;10.79;99.45
17785;BME280;9016;53.582;10.062;2022-09-20T03:38:19;101815.97;;;10.79;98.72
17785;BME280;9016;53.582;10.062;2022-09-20T03:44:09;101820.75;;;10.71;98.99
17785;BME280;9016;53.582;10.062;2022-09-20T03:46:44;101815.81;;;10.62;98.73
17785;BME280;9016;53.582;10.062;2022-09-20T03:49:46;101818.34;;;10.65;99.09
17785;BME280;9016;53.582;10.062;2022-09-20T03:52:27;101816.63;;;10.64;99.12
17785;BME280;9016;53.582;10.062;2022-09-20T03:55:18;101818.41;;;10.63;98.47
17785;BME280;9016;53.582;10.062;2022-09-20T03:58:06;101819.53;;;10.58;98.29
17785;BME280;9016;53.582;10.062;2022-09-20T04:00:55;101816.06;;;10.56;98.23
17785;BME280;9016;53.582;10.062;2022-09-20T04:03:34;101819.47;;;10.59;99.07
17785;BME280;9016;53.582;10.062;2022-09-20T04:06:29;101823.16;;;10.57;98.33
17785;BME280;9016;53.582;10.062;2022-09-20T04:09:21;101819.00;;;10.50;98.05
17785;BME280;9016;53.582;10.062;2022-09-20T04:11:58;101832.47;;;10.47;98.31
17785;BME280;9016;53.582;10.062;2022-09-20T04:14:33;101824.63;;;10.42;98.66
17785;BME280;9016;53.582;10.062;2022-09-20T04:17:21;101835.06;;;10.48;99.31
17785;BME280;9016;53.582;10.062;2022-09-20T04:19:57;101836.81;;;10.49;98.92
17785;BME280;9016;53.582;10.062;2022-09-20T04:22:28;101838.78;;;10.44;98.36
17785;BME280;9016;53.582;10.062;2022-09-20T04:25:01;101832.38;;;10.48;99.40
17785;BME280;9016;53.582;10.062;2022-09-20T04:27:35;101836.81;;;10.49;98.55
17785;BME280;9016;53.582;10.062;2022-09-20T04:30:15;101844.00;;;10.47;98.72
17785;BME280;9016;53.582;10.062;2022-09-20T04:32:49;101843.13;;;10.47;98.70
17785;BME280;9016;53.582;10.062;2022-09-20T04:35:28;101840.59;;;10.44;98.84
17785;BME280;9016;53.582;10.062;2022-09-20T04:38:19;101838.84;;;10.43;99.03
17785;BME280;9016;53.582;10.062;2022-09-20T04:41:16;101838.84;;;10.43;98.82
17785;BME280;9016;53.582;10.062;2022-09-20T04:44:12;101848.69;;;10.41;98.31
17785;BME280;9016;53.582;10.062;2022-09-20T04:47:30;101848.75;;;10.39;98.72
17785;BME280;9016;53.582;10.062;2022-09-20T04:56:19;101853.94;;;10.42;98.27
17785;BME280;9016;53.582;10.062;2022-09-20T04:58:48;101860.22;;;10.41;98.28
17785;BME280;9016;53.582;10.062;2022-09-20T05:10:44;101877.94;;;10.42;97.65
17785;BME280;9016;53.582;10.062;2022-09-20T05:13:28;101870.00;;;10.41;97.52
17785;BME280;9016;53.582;10.062;2022-09-20T05:16:02;101871.84;;;10.40;97.61
17785;BME280;9016;53.582;10.062;2022-09-20T05:19:05;101876.22;;;10.41;98.35
17785;BME280;9016;53.582;10.062;2022-09-20T05:21:51;101880.56;;;10.44;98.17
17785;BME280;9016;53.582;10.062;2022-09-20T05:24:52;101879.69;;;10.43;98.40
17785;BME280;9016;53.582;10.062;2022-09-20T05:27:38;101890.09;;;10.49;97.70
17785;BME280;9016;53.582;10.062;2022-09-20T05:30:24;101885.75;;;10.47;98.12
17785;BME280;9016;53.582;10.062;2022-09-20T05:33:03;101889.97;;;10.52;98.55
17785;BME280;9016;53.582;10.062;2022-09-20T05:35:41;101886.25;;;10.56;98.06
17785;BME280;9016;53.582;10.062;2022-09-20T05:38:17;101899.44;;;10.59;97.65
17785;BME280;9016;53.582;10.062;2022-09-20T05:41:02;101902.91;;;10.61;97.44
17785;BME280;9016;53.582;10.062;2022-09-20T05:43:41;101893.28;;;10.57;97.13
17785;BME280;9016;53.582;10.062;2022-09-20T05:46:15;101896.66;;;10.62;97.43
17785;BME280;9016;53.582;10.062;2022-09-20T05:48:54;101907.19;;;10.65;97.00
17785;BME280;9016;53.582;10.062;2022-09-20T05:51:40;101908.16;;;10.63;96.36
17785;BME280;9016;53.582;10.062;2022-09-20T05:54:32;101908.91;;;10.66;97.02
17785;BME280;9016;53.582;10.062;2022-09-20T05:57:13;101922.28;;;10.65;97.24
17785;BME280;9016;53.582;10.062;2022-09-20T05:59:55;101923.03;;;10.68;97.57
17785;BME280;9016;53.582;10.062;2022-09-20T06:02:37;101915.72;;;10.73;97.00
17785;BME280;9016;53.582;10.062;2022-09-20T06:05:13;101919.97;;;10.77;97.00
17785;BME280;9016;53.582;10.062;2022-09-20T06:07:55;101921.66;;;10.80;96.71
17785;BME280;9016;53.582;10.062;2022-09-20T06:10:48;101920.53;;;10.85;97.31
17785;BME280;9016;53.582;10.062;2022-09-20T06:13:34;101919.31;;;10.92;97.00
17785;BME280;9016;53.582;10.062;2022-09-20T06:16:15;101922.63;;;10.99;96.72
17785;BME280;9016;53.582;10.062;2022-09-20T06:18:54;101921.59;;;11.02;96.70
17785;BME280;9016;53.582;10.062;2022-09-20T06:21:31;101922.31;;;11.05;96.93
17785;BME280;9016;53.582;10.062;2022-09-20T06:24:12;101930.81;;;11.15;97.23
17785;BME280;9016;53.582;10.062;2022-09-20T06:26:44;101920.75;;;11.21;97.02
17785;BME280;9016;53.582;10.062;2022-09-20T06:29:13;101926.66;;;11.28;96.84
17785;BME280;9016;53.582;10.062;2022-09-20T06:31:45;101930.06;;;11.31;96.70
17785;BME280;9016;53.582;10.062;2022-09-20T06:34:14;101926.25;;;11.37;96.77
17785;BME280;9016;53.582;10.062;2022-09-20T06:36:45;101933.25;;;11.39;96.73
17785;BME280;9016;53.582;10.062;2022-09-20T06:39:37;101934.66;;;11.48;96.53
17785;BME280;9016;53.582;10.062;2022-09-20T06:42:27;101944.00;;;11.58;97.11
17785;BME280;9016;53.582;10.062;2022-09-20T06:44:55;101941.25;;;11.59;96.30
17785;BME280;9016;53.582;10.062;2022-09-20T06:47:24;101941.00;;;11.64;96.34
17785;BME280;9016;53.582;10.062;2022-09-20T06:49:53;101941.72;;;11.69;96.44
17785;BME280;9016;53.582;10.062;2022-09-20T06:52:21;101940.28;;;11.80;96.43
17785;BME280;9016;53.582;10.062;2022-09-20T06:54:51;101946.50;;;11.81;95.65
17785;BME280;9016;53.582;10.062;2022-09-20T06:57:22;101954.38;;;11.84;95.86
17785;BME280;9016;53.582;10.062;2022-09-20T06:59:54;101950.50;;;11.91;96.36
17785;BME280;9016;53.582;10.062;2022-09-20T07:02:22;101955.53;;;11.97;95.93
17785;BME280;9016;53.582;10.062;2022-09-20T07:04:51;101953.38;;;12.05;95.44
17785;BME280;9016;53.582;10.062;2022-09-20T07:07:24;101947.66;;;12.13;95.33
17785;BME280;9016;53.582;10.062;2022-09-20T07:09:53;101958.56;;;12.27;95.17
17785;BME280;9016;53.582;10.062;2022-09-20T07:12:21;101960.88;;;12.34;94.88
17785;BME280;9016;53.582;10.062;2022-09-20T07:14:49;101962.25;;;12.43;94.28
17785;BME280;9016;53.582;10.062;2022-09-20T07:17:17;101955.56;;;12.51;94.65
17785;BME280;9016;53.582;10.062;2022-09-20T07:19:45;101963.38;;;12.56;93.24
17785;BME280;9016;53.582;10.062;2022-09-20T07:22:14;101967.94;;;12.71;94.10
17785;BME280;9016;53.582;10.062;2022-09-20T07:24:42;101964.69;;;12.83;93.05
17785;BME280;9016;53.582;10.062;2022-09-20T07:27:10;101980.44;;;12.89;92.52
17785;BME280;9016;53.582;10.062;2022-09-20T07:29:39;101971.66;;;13.04;92.89
17785;BME280;9016;53.582;10.062;2022-09-20T07:32:07;101974.97;;;14.86;91.21
17785;BME280;9016;53.582;10.062;2022-09-20T07:34:35;101977.63;;;16.72;78.57
17785;BME280;9016;53.582;10.062;2022-09-20T07:37:03;101974.03;;;18.62;71.22
17785;BME280;9016;53.582;10.062;2022-09-20T07:39:32;101974.75;;;20.14;62.85
17785;BME280;9016;53.582;10.062;2022-09-20T07:42:00;101970.41;;;21.09;58.84
17785;BME280;9016;53.582;10.062;2022-09-20T07:44:31;101971.16;;;21.32;54.44
17785;BME280;9016;53.582;10.062;2022-09-20T07:47:00;101980.53;;;20.09;57.52
17785;BME280;9016;53.582;10.062;2022-09-20T07:49:28;101985.44;;;19.02;58.97
17785;BME280;9016;53.582;10.062;2022-09-20T07:51:57;101986.22;;;20.17;57.99
17785;BME280;9016;53.582;10.062;2022-09-20T07:54:25;101980.41;;;21.50;52.89
17785;BME280;9016;53.582;10.062;2022-09-20T07:56:55;101978.06;;;22.37;48.19
17785;BME280;9016;53.582;10.062;2022-09-20T07:59:23;101983.22;;;23.18;46.81
17785;BME280;9016;53.582;10.062;2022-09-20T08:01:51;101986.28;;;23.90;46.16
17785;BME280;9016;53.582;10.062;2022-09-20T08:04:20;101981.41;;;24.30;44.87
17785;BME280;9016;53.582;10.062;2022-09-20T08:06:48;101985.53;;;24.71;41.78
17785;BME280;9016;53.582;10.062;2022-09-20T08:09:16;101998.38;;;24.96;41.78
17785;BME280;9016;53.582;10.062;2022-09-20T08:11:45;101988.88;;;25.18;41.85
17785;BME280;9016;53.582;10.062;2022-09-20T08:14:16;101994.84;;;25.48;42.17
17785;BME280;9016;53.582;10.062;2022-09-20T08:16:46;101994.34;;;25.53;40.44
17785;BME280;9016;53.582;10.062;2022-09-20T08:19:16;101997.41;;;26.01;39.94
17785;BME280;9016;53.582;10.062;2022-09-20T08:21:45;101994.53;;;26.28;38.66
17785;BME280;9016;53.582;10.062;2022-09-20T08:24:13;101996.22;;;26.63;38.45
17785;BME280;9016;53.582;10.062;2022-09-20T08:26:43;101993.38;;;26.47;37.95
17785;BME280;9016;53.582;10.062;2022-09-20T08:29:11;102001.41;;;26.82;38.08
17785;BME280;9016;53.582;10.062;2022-09-20T08:31:42;101995.50;;;27.11;36.79
17785;BME280;9016;53.582;10.062;2022-09-20T08:34:11;101998.88;;;26.89;36.25
17785;BME280;9016;53.582;10.062;2022-09-20T08:36:42;102004.19;;;26.90;37.08
17785;BME280;9016;53.582;10.062;2022-09-20T08:39:13;101999.06;;;26.54;36.31
17785;BME280;9016;53.582;10.062;2022-09-20T08:42:09;102002.66;;;26.96;35.30
17785;BME280;9016;53.582;10.062;2022-09-20T08:44:46;102000.31;;;27.41;34.97
17785;BME280;9016;53.582;10.062;2022-09-20T08:47:27;101997.41;;;27.59;35.07
17785;BME280;9016;53.582;10.062;2022-09-20T08:49:57;102000.81;;;27.85;34.35
17785;BME280;9016;53.582;10.062;2022-09-20T08:52:28;102002.88;;;27.99;33.20
17785;BME280;9016;53.582;10.062;2022-09-20T08:55:04;102010.25;;;27.58;32.96
17785;BME280;9016;53.582;10.062;2022-09-20T08:57:40;102001.38;;;27.40;34.46
17785;BME280;9016;53.582;10.062;2022-09-20T09:00:15;102009.56;;;27.32;32.72
17785;BME280;9016;53.582;10.062;2022-09-20T09:02:46;102011.78;;;27.53;33.03
17785;BME280;9016;53.582;10.062;2022-09-20T09:05:28;102012.91;;;27.10;32.82
17785;BME280;9016;53.582;10.062;2022-09-20T09:07:58;102015.19;;;27.22;33.62
17785;BME280;9016;53.582;10.062;2022-09-20T09:10:33;102019.63;;;27.07;33.86
17785;BME280;9016;53.582;10.062;2022-09-20T09:13:15;102015.66;;;27.10;33.00
17785;BME280;9016;53.582;10.062;2022-09-20T09:15:50;102017.44;;;26.69;33.99
17785;BME280;9016;53.582;10.062;2022-09-20T09:18:21;102020.22;;;26.10;34.10
17785;BME280;9016;53.582;10.062;2022-09-20T09:20:57;102018.66;;;25.29;35.74
17785;BME280;9016;53.582;10.062;2022-09-20T09:23:28;102023.28;;;23.74;37.84
17785;BME280;9016;53.582;10.062;2022-09-20T09:26:03;102032.66;;;22.44;40.06
17785;BME280;9016;53.582;10.062;2022-09-20T09:28:32;102035.38;;;21.84;41.41
17785;BME280;9016;53.582;10.062;2022-09-20T09:31:19;102037.94;;;21.33;42.51
17785;BME280;9016;53.582;10.062;2022-09-20T09:33:50;102041.44;;;20.59;43.51
17785;BME280;9016;53.582;10.062;2022-09-20T09:36:20;102039.47;;;20.50;44.76
17785;BME280;9016;53.582;10.062;2022-09-20T09:38:50;102049.34;;;20.18;45.31
17785;BME280;9016;53.582;10.062;2022-09-20T09:41:22;102037.34;;;19.87;46.03
17785;BME280;9016;53.582;10.062;2022-09-20T09:43:59;102035.25;;;19.91;44.93
17785;BME280;9016;53.582;10.062;2022-09-20T09:46:31;102039.41;;;19.84;45.26
17785;BME280;9016;53.582;10.062;2022-09-20T09:49:12;102035.63;;;19.97;47.17
17785;BME280;9016;53.582;10.062;2022-09-20T09:51:59;102041.91;;;20.09;45.04
17785;BME280;9016;53.582;10.062;2022-09-20T09:54:30;102040.59;;;20.25;44.51
17785;BME280;9016;53.582;10.062;2022-09-20T09:57:09;102039.84;;;20.01;46.83
17785;BME280;9016;53.582;10.062;2022-09-20T09:59:57;102044.38;;;20.12;45.04
17785;BME280;9016;53.582;10.062;2022-09-20T10:03:05;102032.94;;;20.08;44.41
17785;BME280;9016;53.582;10.062;2022-09-20T10:05:40;102038.38;;;19.51;44.89
17785;BME280;9016;53.582;10.062;2022-09-20T10:08:22;102041.72;;;19.66;43.30
17785;BME280;9016;53.582;10.062;2022-09-20T10:11:02;102043.94;;;19.72;43.99
17785;BME280;9016;53.582;10.062;2022-09-20T10:13:42;102035.22;;;19.80;43.14
17785;BME280;9016;53.582;10.062;2022-09-20T10:16:18;102041.19;;;19.61;43.50
17785;BME280;9016;53.582;10.062;2022-09-20T10:18:56;102027.84;;;19.70;44.71
17785;BME280;9016;53.582;10.062;2022-09-20T10:21:39;102030.81;;;19.79;44.71
17785;BME280;9016;53.582;10.062;2022-09-20T10:24:24;102030.34;;;19.96;43.92
17785;BME280;9016;53.582;10.062;2022-09-20T10:27:26;102038.84;;;20.02;44.20
17785;BME280;9016;53.582;10.062;2022-09-20T10:30:03;102035.88;;;20.05;42.98
17785;BME280;9016;53.582;10.062;2022-09-20T10:32:44;102033.53;;;19.90;42.18
17785;BME280;9016;53.582;10.062;2022-09-20T10:35:22;102040.38;;;20.17;42.38
17785;BME280;9016;53.582;10.062;2022-09-20T10:38:10;102038.56;;;20.05;42.64
17785;BME280;9016;53.582;10.062;2022-09-20T10:40:46;102038.06;;;19.89;42.04
17785;BME280;9016;53.582;10.062;2022-09-20T10:43:48;102034.25;;;19.69;41.14
17785;BME280;9016;53.582;10.062;2022-09-20T10:46:26;102032.00;;;19.63;44.17
17785;BME280;9016;53.582;10.062;2022-09-20T10:49:03;102034.44;;;19.66;45.30
17785;BME280;9016;53.582;10.062;2022-09-20T10:51:42;102044.00;;;19.25;43.29
17785;BME280;9016;53.582;10.062;2022-09-20T10:54:25;102038.94;;;18.97;42.33
17785;BME280;9016;53.582;10.062;2022-09-20T10:57:14;102033.97;;;18.67;43.08
17785;BME280;9016;53.582;10.062;2022-09-20T10:59:49;102038.00;;;18.49;42.73
17785;BME280;9016;53.582;10.062;2022-09-20T11:02:33;102032.69;;;18.60;43.98
17785;BME280;9016;53.582;10.062;2022-09-20T11:05:17;102040.09;;;18.69;43.39
17785;BME280;9016;53.582;10.062;2022-09-20T11:07:57;102038.28;;;18.69;43.37
17785;BME280;9016;53.582;10.062;2022-09-20T11:10:34;102038.13;;;18.47;44.61
17785;BME280;9016;53.582;10.062;2022-09-20T11:13:09;102046.63;;;18.54;44.45
17785;BME280;9016;53.582;10.062;2022-09-20T11:15:43;102042.53;;;18.61;44.47
17785;BME280;9016;53.582;10.062;2022-09-20T11:18:16;102049.31;;;18.66;43.49
17785;BME280;9016;53.582;10.062;2022-09-20T11:20:54;102050.13;;;18.79;43.68
17785;BME280;9016;53.582;10.062;2022-09-20T11:23:31;102049.97;;;18.94;44.01
17785;BME280;9016;53.582;10.062;2022-09-20T11:26:09;102047.34;;;19.05;44.69
17785;BME280;9016;53.582;10.062;2022-09-20T11:28:39;102048.78;;;19.21;44.41
17785;BME280;9016;53.582;10.062;2022-09-20T11:31:14;102050.47;;;19.22;44.01
17785;BME280;9016;53.582;10.062;2022-09-20T11:33:47;102050.66;;;18.85;42.21
17785;BME280;9016;53.582;10.062;2022-09-20T11:36:23;102042.38;;;18.99;42.78
17785;BME280;9016;53.582;10.062;2022-09-20T11:38:57;102045.91;;;18.88;43.05
17785;BME280;9016;53.582;10.062;2022-09-20T11:41:30;102047.81;;;18.62;43.94
17785;BME280;9016;53.582;10.062;2022-09-20T11:44:01;102053.31;;;18.36;44.27
17785;BME280;9016;53.582;10.062;2022-09-20T11:46:34;102061.53;;;18.34;44.06
17785;BME280;9016;53.582;10.062;2022-09-20T11:49:08;102059.41;;;18.14;42.26
17785;BME280;9016;53.582;10.062;2022-09-20T11:54:56;102062.63;;;17.94;41.41
17785;BME280;9016;53.582;10.062;2022-09-20T11:57:29;102061.66;;;17.83;42.80
17785;BME280;9016;53.582;10.062;2022-09-20T12:00:00;102067.38;;;17.91;43.12
17785;BME280;9016;53.582;10.062;2022-09-20T12:02:34;102056.16;;;17.97;41.98
17785;BME280;9016;53.582;10.062;2022-09-20T12:05:04;102056.38;;;17.94;42.49
17785;BME280;9016;53.582;10.062;2022-09-20T12:07:35;102058.66;;;17.87;43.44
17785;BME280;9016;53.582;10.062;2022-09-20T12:10:06;102057.44;;;17.91;44.41
17785;BME280;9016;53.582;10.062;2022-09-20T12:12:38;102071.91;;;18.03;44.27
17785;BME280;9016;53.582;10.062;2022-09-20T12:15:22;102057.13;;;18.08;43.18
17785;BME280;9016;53.582;10.062;2022-09-20T12:18:07;102062.22;;;18.00;43.46
17785;BME280;9016;53.582;10.062;2022-09-20T12:20:58;102058.84;;;17.97;44.62
17785;BME280;9016;53.582;10.062;2022-09-20T12:23:46;102058.88;;;18.09;44.33
17785;BME280;9016;53.582;10.062;2022-09-20T12:26:42;102056.28;;;18.20;43.38
17785;BME280;9016;53.582;10.062;2022-09-20T12:35:58;102054.44;;;18.82;41.70
17785;BME280;9016;53.582;10.062;2022-09-20T12:38:37;102056.13;;;18.96;41.23
17785;BME280;9016;53.582;10.062;2022-09-20T12:41:08;102059.16;;;19.15;41.81
17785;BME280;9016;53.582;10.062;2022-09-20T12:43:49;102057.16;;;19.06;41.38
17785;BME280;9016;53.582;10.062;2022-09-20T12:46:39;102060.97;;;19.03;42.09
17785;BME280;9016;53.582;10.062;2022-09-20T12:49:49;102058.66;;;18.86;42.15
17785;BME280;9016;53.582;10.062;2022-09-20T12:52:52;102065.22;;;18.58;43.55
17785;BME280;9016;53.582;10.062;2022-09-20T12:55:51;102060.47;;;18.49;42.10
17785;BME280;9016;53.582;10.062;2022-09-20T12:58:47;102058.41;;;18.40;42.83
17785;BME280;9016;53.582;10.062;2022-09-20T13:01:37;102060.66;;;18.34;42.19
17785;BME280;9016;53.582;10.062;2022-09-20T13:07:47;102055.50;;;18.31;41.10
17785;BME280;9016;53.582;10.062;2022-09-20T13:10:25;102051.28;;;18.39;41.52
17785;BME280;9016;53.582;10.062;2022-09-20T13:13:02;102056.50;;;18.42;41.85
17785;BME280;9016;53.582;10.062;2022-09-20T13:15:33;102056.28;;;18.45;41.42
17785;BME280;9016;53.582;10.062;2022-09-20T13:18:04;102057.03;;;18.47;41.69
17785;BME280;9016;53.582;10.062;2022-09-20T13:20:32;102054.66;;;18.55;42.35
17785;BME280;9016;53.582;10.062;2022-09-20T13:23:04;102051.28;;;18.52;42.17
17785;BME280;9016;53.582;10.062;2022-09-20T13:25:32;102059.38;;;18.64;42.94
17785;BME280;9016;53.582;10.062;2022-09-20T13:28:06;102063.41;;;18.83;42.65
17785;BME280;9016;53.582;10.062;2022-09-20T13:30:36;102067.91;;;18.95;42.77
17785;BME280;9016;53.582;10.062;2022-09-20T13:33:19;102069.72;;;19.07;42.67
17785;BME280;9016;53.582;10.062;2022-09-20T13:35:50;102064.13;;;19.21;42.20
17785;BME280;9016;53.582;10.062;2022-09-20T13:38:26;102065.00;;;19.21;42.11
17785;BME280;9016;53.582;10.062;2022-09-20T13:41:02;102075.91;;;19.20;41.23
17785;BME280;9016;53.582;10.062;2022-09-20T13:43:36;102060.59;;;19.08;41.10
17785;BME280;9016;53.582;10.062;2022-09-20T13:46:09;102077.94;;;19.05;41.68
17785;BME280;9016;53.582;10.062;2022-09-20T13:48:37;102069.19;;;19.02;40.61
17785;BME280;9016;53.582;10.062;2022-09-20T13:51:16;102057.72;;;18.98;39.28
17785;BME280;9016;53.582;10.062;2022-09-20T13:53:45;102066.44;;;18.91;40.77
17785;BME280;9016;53.582;10.062;2022-09-20T13:56:19;102065.09;;;18.96;40.95
17785;BME280;9016;53.582;10.062;2022-09-20T13:58:49;102065.50;;;19.03;41.78
17785;BME280;9016;53.582;10.062;2022-09-20T14:01:23;102065.19;;;19.07;41.25
17785;BME280;9016;53.582;10.062;2022-09-20T14:03:54;102066.59;;;19.24;41.40
17785;BME280;9016;53.582;10.062;2022-09-20T14:06:24;102066.03;;;19.31;41.11
17785;BME280;9016;53.582;10.062;2022-09-20T14:08:57;102066.75;;;19.46;41.28
17785;BME280;9016;53.582;10.062;2022-09-20T14:11:28;102064.03;;;19.46;41.06
17785;BME280;9016;53.582;10.062;2022-09-20T14:13:57;102067.00;;;19.54;40.51
17785;BME280;9016;53.582;10.062;2022-09-20T14:16:29;102065.66;;;19.59;40.63
17785;BME280;9016;53.582;10.062;2022-09-20T14:18:58;102061.75;;;19.63;39.83